createdAt,value
2019-04-27T00:00:14.770Z,9.20
2019-04-27T00:03:01.941Z,9.10
2019-04-27T00:05:44.901Z,9.10
2019-04-27T00:08:28.416Z,9.00
2019-04-27T00:11:08.693Z,9.00
2019-04-27T00:13:40.652Z,9.00
2019-04-27T00:16:18.592Z,9.00
2019-04-27T00:19:05.644Z,8.90
2019-04-27T00:21:52.858Z,8.90
2019-04-27T00:24:23.547Z,8.90
2019-04-27T00:26:54.033Z,8.90
2019-04-27T00:29:23.659Z,8.90
2019-04-27T00:31:55.736Z,8.90
2019-04-27T00:34:25.208Z,9.00
2019-04-27T00:36:56.114Z,8.90
2019-04-27T00:39:38.759Z,8.90
2019-04-27T00:42:08.528Z,8.90
2019-04-27T00:44:37.602Z,8.90
2019-04-27T00:47:07.882Z,8.80
2019-04-27T00:49:37.082Z,8.80
2019-04-27T00:52:06.162Z,8.80
2019-04-27T00:54:35.415Z,8.80
2019-04-27T00:57:06.201Z,8.80
2019-04-27T00:59:49.297Z,8.80
2019-04-27T01:02:19.982Z,8.80
2019-04-27T01:04:49.252Z,8.80
2019-04-27T01:07:18.365Z,8.80
2019-04-27T01:09:47.325Z,8.70
2019-04-27T01:12:16.552Z,8.80
2019-04-27T01:14:45.745Z,8.80
2019-04-27T01:17:14.703Z,8.80
2019-04-27T01:19:43.770Z,8.80
2019-04-27T01:22:13.250Z,8.80
2019-04-27T01:24:42.301Z,8.80
2019-04-27T01:27:18.980Z,8.70
2019-04-27T01:29:50.020Z,8.70
2019-04-27T01:32:20.765Z,8.70
2019-04-27T01:34:50.031Z,8.70
2019-04-27T01:37:21.118Z,8.70
2019-04-27T01:39:50.414Z,8.70
2019-04-27T01:42:19.685Z,8.60
2019-04-27T01:44:50.816Z,8.60
2019-04-27T01:47:19.409Z,8.60
2019-04-27T01:49:49.508Z,8.60
2019-04-27T01:52:19.493Z,8.60
2019-04-27T01:54:49.545Z,8.60
2019-04-27T01:57:19.430Z,8.60
2019-04-27T01:59:49.017Z,8.60
2019-04-27T02:02:20.526Z,8.60
2019-04-27T02:04:57.487Z,8.60
2019-04-27T02:07:27.156Z,8.60
2019-04-27T02:09:56.201Z,8.60
2019-04-27T02:12:25.295Z,8.60
2019-04-27T02:14:54.254Z,8.60
2019-04-27T02:17:23.431Z,8.60
2019-04-27T02:19:52.447Z,8.50
2019-04-27T02:22:21.484Z,8.50
2019-04-27T02:24:51.976Z,8.50
2019-04-27T02:27:22.659Z,8.50
2019-04-27T02:30:01.958Z,8.50
2019-04-27T02:32:39.717Z,8.50
2019-04-27T02:35:10.721Z,8.50
2019-04-27T02:37:40.494Z,8.40
2019-04-27T02:40:42.156Z,8.40
2019-04-27T02:43:10.397Z,8.40
2019-04-27T02:45:40.446Z,8.40
2019-04-27T02:48:10.011Z,8.40
2019-04-27T02:50:39.910Z,8.30
2019-04-27T02:53:11.056Z,8.30
2019-04-27T02:55:40.622Z,8.30
2019-04-27T02:58:13.008Z,8.30
2019-04-27T03:00:40.463Z,8.30
2019-04-27T03:03:11.141Z,8.30
2019-04-27T03:05:40.257Z,8.30
2019-04-27T03:08:10.294Z,8.30
2019-04-27T03:10:40.242Z,8.30
2019-04-27T03:13:13.509Z,8.30
2019-04-27T03:15:52.901Z,8.30
2019-04-27T03:18:33.018Z,8.20
2019-04-27T03:21:06.513Z,8.30
2019-04-27T03:23:35.545Z,8.30
2019-04-27T03:26:06.361Z,8.30
2019-04-27T03:28:35.399Z,8.30
2019-04-27T03:31:04.590Z,8.30
2019-04-27T03:33:33.817Z,8.30
2019-04-27T03:36:03.235Z,8.30
2019-04-27T03:38:32.495Z,8.30
2019-04-27T03:41:01.680Z,8.30
2019-04-27T03:43:30.917Z,8.40
2019-04-27T03:46:00.681Z,8.30
2019-04-27T03:48:29.826Z,8.40
2019-04-27T03:51:00.682Z,8.40
2019-04-27T03:53:40.902Z,8.40
2019-04-27T03:56:30.144Z,8.40
2019-04-27T03:59:10.125Z,8.40
2019-04-27T04:01:39.843Z,8.50
2019-04-27T04:04:10.393Z,8.50
2019-04-27T04:06:40.206Z,8.50
2019-04-27T04:09:10.409Z,8.60
2019-04-27T04:11:41.231Z,8.60
2019-04-27T04:14:24.251Z,8.70
2019-04-27T04:17:02.265Z,8.70
2019-04-27T04:19:31.551Z,8.70
2019-04-27T04:21:59.926Z,8.70
2019-04-27T04:24:31.719Z,8.70
2019-04-27T04:27:00.136Z,8.70
2019-04-27T04:29:30.730Z,8.80
2019-04-27T04:32:00.575Z,8.80
2019-04-27T04:34:30.107Z,8.80
2019-04-27T04:37:00.458Z,8.80
2019-04-27T04:39:30.002Z,8.80
2019-04-27T04:42:12.610Z,8.80
2019-04-27T04:45:00.406Z,8.70
2019-04-27T04:47:30.842Z,8.80
2019-04-27T04:50:11.283Z,8.80
2019-04-27T04:52:30.702Z,8.90
2019-04-27T04:55:02.447Z,8.90
2019-04-27T04:57:30.549Z,9.00
2019-04-27T04:59:59.647Z,9.00
2019-04-27T05:02:29.322Z,9.10
2019-04-27T05:04:59.067Z,9.10
2019-04-27T05:07:29.706Z,9.10
2019-04-27T05:09:58.843Z,9.20
2019-04-27T05:12:28.761Z,9.20
2019-04-27T05:14:59.103Z,9.20
2019-04-27T05:17:29.679Z,9.20
2019-04-27T05:19:59.140Z,9.20
2019-04-27T05:22:29.555Z,9.10
2019-04-27T05:25:00.360Z,9.10
2019-04-27T05:27:30.039Z,9.20
2019-04-27T05:30:01.656Z,9.20
2019-04-27T05:32:30.951Z,9.20
2019-04-27T05:34:59.995Z,9.30
2019-04-27T05:37:31.657Z,9.30
2019-04-27T05:39:59.680Z,9.30
2019-04-27T05:42:28.774Z,9.40
2019-04-27T05:45:10.762Z,9.40
2019-04-27T05:47:48.485Z,9.40
2019-04-27T05:50:18.351Z,9.50
2019-04-27T05:52:46.113Z,9.40
2019-04-27T05:55:15.285Z,9.50
2019-04-27T05:57:44.241Z,9.60
2019-04-27T06:00:16.230Z,9.60
2019-04-27T06:02:45.525Z,9.70
2019-04-27T06:05:15.243Z,9.80
2019-04-27T06:07:44.469Z,9.90
2019-04-27T06:10:14.189Z,10.00
2019-04-27T06:12:43.255Z,10.00
2019-04-27T06:15:12.544Z,10.10
2019-04-27T06:17:41.699Z,10.20
2019-04-27T06:20:10.985Z,10.20
2019-04-27T06:22:40.256Z,10.30
2019-04-27T06:25:11.700Z,10.40
2019-04-27T06:27:40.296Z,10.50
2019-04-27T06:30:10.099Z,10.60
2019-04-27T06:32:39.607Z,10.80
2019-04-27T06:35:12.153Z,10.90
2019-04-27T06:37:39.949Z,11.10
2019-04-27T06:40:09.789Z,11.20
2019-04-27T06:42:39.817Z,11.30
2019-04-27T06:45:09.909Z,11.50
2019-04-27T06:47:41.294Z,11.60
2019-04-27T06:50:10.609Z,11.70
2019-04-27T06:52:39.670Z,11.60
2019-04-27T06:55:09.509Z,11.80
2019-04-27T06:57:39.125Z,11.90
2019-04-27T07:00:10.164Z,12.00
2019-04-27T07:02:39.317Z,12.10
2019-04-27T07:05:09.039Z,12.20
2019-04-27T07:07:39.494Z,12.30
2019-04-27T07:10:09.050Z,12.30
2019-04-27T07:12:38.733Z,12.30
2019-04-27T07:15:09.712Z,12.40
2019-04-27T07:17:39.009Z,12.30
2019-04-27T07:20:09.063Z,12.20
2019-04-27T07:22:39.683Z,12.20
2019-04-27T07:25:09.131Z,12.20
2019-04-27T07:27:39.504Z,12.30
2019-04-27T07:30:11.902Z,12.20
2019-04-27T07:32:40.008Z,12.00
2019-04-27T07:35:09.852Z,12.00
2019-04-27T07:37:39.369Z,11.90
2019-04-27T07:40:09.188Z,11.90
2019-04-27T07:42:40.827Z,11.90
2019-04-27T07:45:12.010Z,11.80
2019-04-27T07:47:42.663Z,11.70
2019-04-27T07:50:12.134Z,11.60
2019-04-27T07:52:41.344Z,11.40
2019-04-27T07:55:10.663Z,11.30
2019-04-27T07:57:40.053Z,11.30
2019-04-27T08:00:09.549Z,11.40
2019-04-27T08:02:39.091Z,11.40
2019-04-27T08:05:09.338Z,11.20
2019-04-27T08:07:39.259Z,11.30
2019-04-27T08:10:09.707Z,11.30
2019-04-27T08:12:39.000Z,11.10
2019-04-27T08:15:08.898Z,11.10
2019-04-27T08:17:42.383Z,11.00
2019-04-27T08:20:09.988Z,10.80
2019-04-27T08:22:39.051Z,10.80
2019-04-27T08:25:09.441Z,10.80
2019-04-27T08:28:00.277Z,10.60
2019-04-27T08:30:39.258Z,10.60
2019-04-27T08:33:09.781Z,10.50
2019-04-27T08:35:38.882Z,10.50
2019-04-27T08:38:09.473Z,10.50
2019-04-27T08:40:39.371Z,10.50
2019-04-27T08:43:09.330Z,10.60
2019-04-27T08:45:39.186Z,10.60
2019-04-27T08:48:09.320Z,10.60
2019-04-27T08:50:41.862Z,10.70
2019-04-27T08:53:09.917Z,10.80
2019-04-27T08:55:39.611Z,10.60
2019-04-27T08:58:10.099Z,10.60
2019-04-27T09:00:39.587Z,10.70
2019-04-27T09:03:09.477Z,10.70
2019-04-27T09:05:39.088Z,10.60
2019-04-27T09:08:19.104Z,10.60
2019-04-27T09:11:05.335Z,10.60
2019-04-27T09:13:42.463Z,10.70
2019-04-27T09:16:13.126Z,10.80
2019-04-27T09:18:42.229Z,10.90
2019-04-27T09:21:11.186Z,11.00
2019-04-27T09:23:40.325Z,11.10
2019-04-27T09:26:11.105Z,11.20
2019-04-27T09:28:40.109Z,11.10
2019-04-27T09:31:09.461Z,11.10
2019-04-27T09:33:38.526Z,11.20
2019-04-27T09:36:07.544Z,11.30
2019-04-27T09:38:36.666Z,11.40
2019-04-27T09:41:07.161Z,11.40
2019-04-27T09:43:36.794Z,11.40
2019-04-27T09:46:06.205Z,11.40
2019-04-27T09:48:36.194Z,11.40
2019-04-27T09:51:06.447Z,11.60
2019-04-27T09:53:36.422Z,11.60
2019-04-27T09:56:05.924Z,11.60
2019-04-27T09:58:36.639Z,11.60
2019-04-27T10:01:06.651Z,11.70
2019-04-27T10:03:36.166Z,11.60
2019-04-27T10:06:05.941Z,11.70
2019-04-27T10:08:36.709Z,11.90
2019-04-27T10:11:06.107Z,12.00
2019-04-27T10:13:36.386Z,12.20
2019-04-27T10:16:06.167Z,12.20
2019-04-27T10:18:36.778Z,12.30
2019-04-27T10:21:06.404Z,12.30
2019-04-27T10:23:36.220Z,12.40
2019-04-27T10:26:06.667Z,12.50
2019-04-27T10:28:37.229Z,12.70
2019-04-27T10:31:07.092Z,12.90
2019-04-27T10:33:36.412Z,12.90
2019-04-27T10:36:06.463Z,13.10
2019-04-27T10:38:36.177Z,13.30
2019-04-27T10:41:05.699Z,13.30
2019-04-27T10:43:36.198Z,13.40
2019-04-27T10:46:06.682Z,13.40
2019-04-27T10:48:36.703Z,13.40
2019-04-27T10:51:07.376Z,13.30
2019-04-27T10:53:38.925Z,13.40
2019-04-27T10:56:07.482Z,13.50
2019-04-27T10:58:36.500Z,13.50
2019-04-27T11:01:07.217Z,13.40
2019-04-27T11:03:55.488Z,13.50
2019-04-27T11:06:29.711Z,13.50
2019-04-27T11:08:59.036Z,13.50
2019-04-27T11:11:28.340Z,13.40
2019-04-27T11:14:00.840Z,13.20
2019-04-27T11:16:28.229Z,13.20
2019-04-27T11:18:58.709Z,13.30
2019-04-27T11:21:27.970Z,13.40
2019-04-27T11:23:57.177Z,13.50
2019-04-27T11:26:26.355Z,13.40
2019-04-27T11:28:56.085Z,13.40
2019-04-27T11:31:26.103Z,13.30
2019-04-27T11:33:56.678Z,13.30
2019-04-27T11:36:27.513Z,13.30
2019-04-27T11:39:06.590Z,13.40
2019-04-27T11:41:35.646Z,13.60
2019-04-27T11:44:04.945Z,13.80
2019-04-27T11:46:33.918Z,13.90
2019-04-27T11:49:02.866Z,14.00
2019-04-27T11:51:31.832Z,14.00
2019-04-27T11:54:00.949Z,14.00
2019-04-27T11:56:29.937Z,14.00
2019-04-27T11:58:58.945Z,14.00
2019-04-27T12:01:27.966Z,14.00
2019-04-27T12:03:56.995Z,13.80
2019-04-27T12:06:26.348Z,13.70
2019-04-27T12:08:55.377Z,13.60
2019-04-27T12:11:26.023Z,13.70
2019-04-27T12:13:56.164Z,13.70
2019-04-27T12:16:26.178Z,13.70
2019-04-27T12:18:56.360Z,13.70
2019-04-27T12:21:25.650Z,13.70
2019-04-27T12:23:54.732Z,13.80
2019-04-27T12:26:28.356Z,13.90
2019-04-27T12:28:58.771Z,14.00
2019-04-27T12:31:32.102Z,14.10
2019-04-27T12:34:01.159Z,14.30
2019-04-27T12:36:30.340Z,14.40
2019-04-27T12:38:59.333Z,14.50
2019-04-27T12:41:28.678Z,14.50
2019-04-27T12:43:57.754Z,14.40
2019-04-27T12:46:26.898Z,14.50
2019-04-27T12:48:57.207Z,14.60
2019-04-27T12:51:26.617Z,14.70
2019-04-27T12:54:00.223Z,14.90
2019-04-27T12:56:30.883Z,14.90
2019-04-27T12:59:13.788Z,15.10
2019-04-27T13:01:42.976Z,15.20
2019-04-27T13:04:12.276Z,15.30
2019-04-27T13:06:41.315Z,15.40
2019-04-27T13:09:10.500Z,15.50
2019-04-27T13:11:39.753Z,15.50
2019-04-27T13:14:08.752Z,15.50
2019-04-27T13:16:37.945Z,15.50
2019-04-27T13:19:06.928Z,15.50
2019-04-27T13:21:36.580Z,15.70
2019-04-27T13:24:07.029Z,15.80
2019-04-27T13:26:37.997Z,15.80
2019-04-27T13:29:07.069Z,15.80
2019-04-27T13:31:36.923Z,15.90
2019-04-27T13:34:06.222Z,15.80
2019-04-27T13:36:36.806Z,15.60
2019-04-27T13:39:06.866Z,15.30
2019-04-27T13:41:36.155Z,15.20
2019-04-27T13:44:06.596Z,15.00
2019-04-27T13:46:55.860Z,15.00
2019-04-27T13:49:26.424Z,14.90
2019-04-27T13:51:57.540Z,14.70
2019-04-27T13:54:29.122Z,14.80
2019-04-27T13:56:57.632Z,14.80
2019-04-27T13:59:26.608Z,14.90
2019-04-27T14:01:55.567Z,14.90
2019-04-27T14:04:24.695Z,15.10
2019-04-27T14:06:53.744Z,15.10
2019-04-27T14:09:22.815Z,15.20
2019-04-27T14:11:53.513Z,15.20
2019-04-27T14:14:22.617Z,15.30
2019-04-27T14:16:51.861Z,15.30
2019-04-27T14:19:20.907Z,15.40
2019-04-27T14:31:29.186Z,15.30
2019-04-27T14:33:58.731Z,15.20
2019-04-27T14:36:29.191Z,15.20
2019-04-27T14:38:58.871Z,14.90
2019-04-27T14:41:28.310Z,14.70
2019-04-27T14:44:07.416Z,14.50
2019-04-27T14:46:30.435Z,14.10
2019-04-27T14:48:59.110Z,13.40
2019-04-27T14:51:28.376Z,12.90
2019-04-27T14:53:58.891Z,12.50
2019-04-27T14:56:28.299Z,12.50
2019-04-27T14:58:58.724Z,12.40
2019-04-27T15:01:29.035Z,12.30
2019-04-27T15:03:58.214Z,12.40
2019-04-27T15:06:27.539Z,12.40
2019-04-27T15:08:56.625Z,12.40
2019-04-27T15:11:25.855Z,12.50
2019-04-27T15:13:57.229Z,12.50
2019-04-27T15:16:25.841Z,12.60
2019-04-27T15:19:17.691Z,12.70
2019-04-27T15:21:57.779Z,12.80
2019-04-27T15:24:16.690Z,13.00
2019-04-27T15:26:46.010Z,13.20
2019-04-27T15:29:20.592Z,13.20
2019-04-27T15:31:49.313Z,13.10
2019-04-27T15:34:34.050Z,13.00
2019-04-27T15:37:07.946Z,12.90
2019-04-27T15:39:57.746Z,12.90
2019-04-27T15:42:28.423Z,12.70
2019-04-27T15:44:58.513Z,12.70
2019-04-27T15:47:28.557Z,12.50
2019-04-27T15:49:58.973Z,12.30
2019-04-27T15:52:31.166Z,11.60
2019-04-27T15:55:02.851Z,11.40
2019-04-27T15:57:29.945Z,11.00
2019-04-27T15:59:58.894Z,10.90
2019-04-27T16:02:28.895Z,10.90
2019-04-27T16:04:58.332Z,11.00
2019-04-27T16:07:30.375Z,11.00
2019-04-27T16:10:02.437Z,11.10
2019-04-27T16:12:29.154Z,11.20
2019-04-27T16:14:58.184Z,11.20
2019-04-27T16:17:29.375Z,11.30
2019-04-27T16:19:58.135Z,11.30
2019-04-27T16:22:27.791Z,11.20
2019-04-27T16:24:58.119Z,11.10
2019-04-27T16:27:31.482Z,11.00
2019-04-27T16:30:00.373Z,10.90
2019-04-27T16:32:28.816Z,10.90
2019-04-27T16:34:59.264Z,10.80
2019-04-27T16:37:30.182Z,10.70
2019-04-27T16:39:59.390Z,10.60
2019-04-27T16:42:28.801Z,10.50
2019-04-27T16:44:58.202Z,10.20
2019-04-27T16:47:28.214Z,10.20
2019-04-27T16:49:58.639Z,10.00
2019-04-27T16:52:29.815Z,9.90
2019-04-27T16:55:00.777Z,9.90
2019-04-27T16:57:32.512Z,10.00
2019-04-27T17:00:01.217Z,10.00
2019-04-27T17:02:30.588Z,10.10
2019-04-27T17:04:59.877Z,10.00
2019-04-27T17:07:30.210Z,9.90
2019-04-27T17:10:02.277Z,9.90
2019-04-27T17:12:34.803Z,9.90
2019-04-27T17:15:05.869Z,9.90
2019-04-27T17:17:47.193Z,9.90
2019-04-27T17:20:17.779Z,9.90
2019-04-27T17:22:49.598Z,9.90
2019-04-27T17:25:20.079Z,9.90
2019-04-27T17:27:48.994Z,9.80
2019-04-27T17:30:18.916Z,9.80
2019-04-27T17:32:51.114Z,9.90
2019-04-27T17:35:20.656Z,10.00
2019-04-27T17:37:49.654Z,10.00
2019-04-27T17:40:18.712Z,10.00
2019-04-27T17:42:48.220Z,10.00
2019-04-27T17:45:21.365Z,10.10
2019-04-27T17:47:48.429Z,10.00
2019-04-27T17:50:24.850Z,9.90
2019-04-27T17:52:55.003Z,9.90
2019-04-27T17:55:24.157Z,10.00
2019-04-27T17:57:50.881Z,10.00
2019-04-27T18:00:20.694Z,9.90
2019-04-27T18:02:49.899Z,10.00
2019-04-27T18:05:19.020Z,9.90
2019-04-27T18:07:48.657Z,9.90
2019-04-27T18:10:23.051Z,9.90
2019-04-27T18:12:50.104Z,9.90
2019-04-27T18:15:19.620Z,9.80
2019-04-27T18:17:52.225Z,9.80
2019-04-27T18:20:28.929Z,9.60
2019-04-27T18:23:14.908Z,9.50
2019-04-27T18:25:49.838Z,9.60
2019-04-27T18:28:20.480Z,9.40
2019-04-27T18:30:59.924Z,9.20
2019-04-27T18:33:32.615Z,8.90
2019-04-27T18:36:05.439Z,8.90
2019-04-27T18:38:35.450Z,8.90
2019-04-27T18:41:03.072Z,8.90
2019-04-27T18:43:33.270Z,8.80
2019-04-27T18:46:02.266Z,8.80
2019-04-27T18:48:50.210Z,8.70
2019-04-27T18:51:33.820Z,8.90
2019-04-27T18:54:03.725Z,8.90
2019-04-27T18:56:33.429Z,8.90
2019-04-27T18:59:03.732Z,8.80
2019-04-27T19:01:32.948Z,8.60
2019-04-27T19:04:02.111Z,8.60
2019-04-27T19:06:31.244Z,8.60
2019-04-27T19:09:00.373Z,8.70
2019-04-27T19:11:30.698Z,8.70
2019-04-27T19:13:59.729Z,8.70
2019-04-27T19:16:29.330Z,8.80
2019-04-27T19:18:58.608Z,8.70
2019-04-27T19:21:28.803Z,8.70
2019-04-27T19:23:58.569Z,8.70
2019-04-27T19:26:29.431Z,8.70
2019-04-27T19:29:02.884Z,8.80
2019-04-27T19:31:38.287Z,8.80
2019-04-27T19:34:07.453Z,8.80
2019-04-27T19:36:38.551Z,8.80
2019-04-27T19:39:09.227Z,8.70
2019-04-27T19:41:38.277Z,8.70
2019-04-27T19:44:08.562Z,8.70
2019-04-27T19:46:39.898Z,8.70
2019-04-27T19:49:09.009Z,8.70
2019-04-27T19:51:39.192Z,8.60
2019-04-27T19:54:09.151Z,8.60
2019-04-27T19:56:38.453Z,8.60
2019-04-27T19:59:12.176Z,8.70
2019-04-27T20:01:45.872Z,8.80
2019-04-27T20:04:16.475Z,8.70
2019-04-27T20:06:45.554Z,8.70
2019-04-27T20:09:19.299Z,8.70
2019-04-27T20:11:48.354Z,8.70
2019-04-27T20:14:21.277Z,8.70
2019-04-27T20:16:51.943Z,8.70
2019-04-27T20:19:21.607Z,8.70
2019-04-27T20:21:50.980Z,8.70
2019-04-27T20:24:19.943Z,8.80
2019-04-27T20:26:49.062Z,8.80
2019-04-27T20:29:18.348Z,8.90
2019-04-27T20:31:47.514Z,9.00
2019-04-27T20:34:16.553Z,9.00
2019-04-27T20:36:45.894Z,9.00
2019-04-27T20:39:14.926Z,9.00
2019-04-27T20:41:44.129Z,9.00
2019-04-27T20:44:13.434Z,9.00
2019-04-27T20:46:42.565Z,9.00
2019-04-27T20:49:15.732Z,9.00
2019-04-27T20:51:52.790Z,9.00
2019-04-27T20:54:22.339Z,9.00
2019-04-27T20:56:54.016Z,9.00
2019-04-27T20:59:22.216Z,9.00
2019-04-27T21:01:51.777Z,8.80
2019-04-27T21:04:25.073Z,8.80
2019-04-27T21:06:55.869Z,8.80
2019-04-27T21:09:24.900Z,8.80
2019-04-27T21:11:53.916Z,8.80
2019-04-27T21:14:22.988Z,8.70
2019-04-27T21:16:52.061Z,8.70
2019-04-27T21:19:21.130Z,8.60
2019-04-27T21:21:51.002Z,8.70
2019-04-27T21:24:20.746Z,8.60
2019-04-27T21:26:51.389Z,8.60
2019-04-27T21:29:20.995Z,8.60
2019-04-27T21:31:52.022Z,8.60
2019-04-27T21:34:21.124Z,8.60
2019-04-27T21:36:51.020Z,8.60
2019-04-27T21:39:21.725Z,8.50
2019-04-27T21:41:51.677Z,8.50
2019-04-27T21:44:21.792Z,8.50
2019-04-27T21:46:51.863Z,8.40
2019-04-27T21:49:22.879Z,8.40
2019-04-27T21:52:02.374Z,8.40
2019-04-27T21:54:33.135Z,8.40
2019-04-27T21:57:02.552Z,8.40
2019-04-27T21:59:31.536Z,8.40
2019-04-27T22:02:02.434Z,8.40
2019-04-27T22:04:31.784Z,8.30
2019-04-27T22:07:01.477Z,8.40
2019-04-27T22:09:30.636Z,8.30
2019-04-27T22:12:00.850Z,8.30
2019-04-27T22:14:30.543Z,8.30
2019-04-27T22:17:00.838Z,8.30
2019-04-27T22:19:31.064Z,8.30
2019-04-27T22:22:01.833Z,8.30
2019-04-27T22:24:38.239Z,8.30
2019-04-27T22:27:08.300Z,8.20
2019-04-27T22:29:37.270Z,8.30
2019-04-27T22:32:06.342Z,8.30
2019-04-27T22:34:35.312Z,8.30
2019-04-27T22:37:04.263Z,8.40
2019-04-27T22:39:35.153Z,8.40
2019-04-27T22:42:17.877Z,8.40
2019-04-27T22:44:48.650Z,8.50
2019-04-27T22:47:17.784Z,8.50
2019-04-27T22:49:46.902Z,8.50
2019-04-27T22:52:16.182Z,8.50
2019-04-27T22:54:45.161Z,8.40
2019-04-27T22:57:15.908Z,8.40
2019-04-27T22:59:55.299Z,8.40
2019-04-27T23:02:29.272Z,8.30
2019-04-27T23:05:01.756Z,7.70
2019-04-27T23:07:31.545Z,7.50
2019-04-27T23:10:01.557Z,7.40
2019-04-27T23:12:31.753Z,7.40
2019-04-27T23:15:00.958Z,7.30
2019-04-27T23:17:31.721Z,7.20
2019-04-27T23:20:01.517Z,7.00
2019-04-27T23:22:31.556Z,7.00
2019-04-27T23:25:01.121Z,6.90
2019-04-27T23:27:31.844Z,7.00
2019-04-27T23:30:01.560Z,7.00
2019-04-27T23:32:32.380Z,7.10
2019-04-27T23:35:01.319Z,7.10
2019-04-27T23:37:30.423Z,7.10
2019-04-27T23:40:00.582Z,7.20
2019-04-27T23:42:31.582Z,7.30
2019-04-27T23:45:01.012Z,7.30
2019-04-27T23:47:30.243Z,7.40
2019-04-27T23:50:00.812Z,7.40
2019-04-27T23:52:48.200Z,7.50
2019-04-27T23:55:17.369Z,7.40
2019-04-27T23:57:46.336Z,7.50
